Time;durP1;ratioP1;P1;durP2;ratioP2;P2;SDS_P1;SDS_P2;PMS_P1;PMS_P2;Temp;Humidity;BMP_temperature;BMP_pressure;BME280_temperature;BME280_humidity;BME280_pressure;Samples;Min_cycle;Max_cycle;Signal;HPM_P1;HPM_P2
2022/03/23 00:01:49;;;;;;;0.10;0.10;;;;;;;6.20;62.71;100099.38;6308139;22;20003;-76
2022/03/23 00:04:15;;;;;;;0.00;0.00;;;;;;;6.12;62.71;100097.00;6307833;22;20067;-76
2022/03/23 00:06:40;;;;;;;0.00;0.00;;;;;;;6.02;63.15;100086.09;6308749;22;20052;-75
2022/03/23 00:09:07;;;;;;;0.47;0.47;;;;;;;6.00;62.87;100088.94;6308043;22;20413;-79
2022/03/23 00:11:33;;;;;;;0.05;0.05;;;;;;;5.86;63.71;100090.06;6281974;22;20007;-79
2022/03/23 00:13:58;;;;;;;0.00;0.00;;;;;;;5.70;64.66;100088.78;6280586;22;20037;-80
2022/03/23 00:16:24;;;;;;;0.00;0.00;;;;;;;5.66;64.77;100082.31;6280306;22;20007;-79
2022/03/23 00:18:49;;;;;;;0.35;0.35;;;;;;;5.59;65.23;100083.16;6279122;22;20011;-79
2022/03/23 00:21:15;;;;;;;0.10;0.10;;;;;;;5.53;65.09;100086.69;6281704;22;20013;-79
2022/03/23 00:23:40;;;;;;;0.32;0.32;;;;;;;5.46;65.85;100083.28;6308450;22;20056;-79
2022/03/23 00:26:06;;;;;;;0.00;0.00;;;;;;;5.55;65.49;100079.31;6279186;22;20019;-79
2022/03/23 00:28:32;;;;;;;0.00;0.00;;;;;;;5.57;65.50;100077.25;6279393;22;20084;-79
2022/03/23 00:30:58;;;;;;;0.00;0.00;;;;;;;5.52;66.18;100077.09;6279388;22;20022;-79
2022/03/23 00:33:23;;;;;;;0.00;0.00;;;;;;;5.52;65.84;100078.97;6279676;22;20007;-78
2022/03/23 00:35:49;;;;;;;0.22;0.22;;;;;;;5.54;65.85;100079.53;6307501;22;20539;-78
2022/03/23 00:38:16;;;;;;;0.10;0.10;;;;;;;5.49;65.42;100074.06;6281109;22;20014;-77
2022/03/23 00:40:44;;;;;;;0.40;0.40;;;;;;;5.45;65.63;100076.34;6307814;22;20062;-79
2022/03/23 00:43:12;;;;;;;0.00;0.00;;;;;;;5.48;64.48;100073.28;6280075;22;20432;-79
2022/03/23 00:45:37;;;;;;;0.00;0.00;;;;;;;5.54;64.15;100077.72;6307229;22;20006;-78
2022/03/23 00:48:04;;;;;;;0.65;0.55;;;;;;;5.53;63.66;100070.78;6279229;22;20011;-77
2022/03/23 00:50:30;;;;;;;0.00;0.00;;;;;;;5.52;63.44;100063.84;6279547;22;20034;-78
2022/03/23 00:52:55;;;;;;;0.00;0.00;;;;;;;5.52;62.96;100063.84;6306637;22;20003;-78
2022/03/23 00:55:21;;;;;;;0.00;0.00;;;;;;;5.47;63.11;100069.00;6279136;22;20057;-74
2022/03/23 00:57:47;;;;;;;0.20;0.20;;;;;;;5.46;63.24;100072.66;6305895;22;19999;-75
2022/03/23 01:00:16;;;;;;;1.20;0.85;;;;;;;5.33;63.30;100072.78;6305753;22;20011;-74
2022/03/23 01:02:43;;;;;;;0.20;0.20;;;;;;;5.31;63.06;100072.16;6305930;22;20031;-75
2022/03/23 01:05:10;;;;;;;1.48;0.57;;;;;;;5.31;62.49;100065.03;6305654;22;20090;-76
2022/03/23 01:07:36;;;;;;;0.05;0.05;;;;;;;5.29;62.71;100059.94;6278152;22;20499;-75
2022/03/23 01:10:03;;;;;;;0.00;0.00;;;;;;;5.29;61.73;100057.28;6305127;22;20000;-75
2022/03/23 01:12:29;;;;;;;2.88;0.57;;;;;;;5.24;61.31;100058.97;6305944;22;20003;-74
2022/03/23 01:14:55;;;;;;;0.00;0.00;;;;;;;5.24;60.89;100061.63;6305417;22;20061;-77
2022/03/23 01:17:20;;;;;;;0.25;0.25;;;;;;;5.19;60.24;100059.59;6278947;22;20056;-77
2022/03/23 01:19:46;;;;;;;0.00;0.00;;;;;;;5.08;59.29;100066.41;6306288;22;20120;-78
2022/03/23 01:22:11;;;;;;;0.00;0.00;;;;;;;5.04;59.04;100070.53;6304820;22;20008;-75
2022/03/23 01:24:37;;;;;;;0.10;0.10;;;;;;;5.01;59.50;100060.34;6305656;22;20000;-76
2022/03/23 01:27:03;;;;;;;0.00;0.00;;;;;;;4.98;59.28;100063.44;6305289;22;20018;-78
2022/03/23 01:29:29;;;;;;;0.00;0.00;;;;;;;4.97;58.83;100064.44;6304952;22;20003;-75
2022/03/23 01:31:55;;;;;;;0.00;0.00;;;;;;;4.97;58.65;100073.19;6305376;22;20026;-76
2022/03/23 01:34:20;;;;;;;0.00;0.00;;;;;;;4.89;58.33;100060.19;6305696;22;20448;-77
2022/03/23 01:36:46;;;;;;;0.30;0.30;;;;;;;4.92;58.05;100069.56;6278284;22;20004;-77
2022/03/23 01:39:11;;;;;;;0.00;0.00;;;;;;;4.96;57.75;100068.13;6304407;22;20011;-77
2022/03/23 01:41:38;;;;;;;0.35;0.35;;;;;;;4.92;57.72;100067.75;6306040;22;20432;-76
2022/03/23 01:44:22;;;;;;;0.00;0.00;;;;;;;4.85;57.78;100074.13;6304943;22;20011;-76
2022/03/23 01:47:08;;;;;;;0.00;0.00;;;;;;;4.89;57.48;100072.66;6305253;22;20010;-77
2022/03/23 01:49:53;;;;;;;0.00;0.00;;;;;;;4.85;57.28;100069.63;6305499;22;20079;-76
2022/03/23 01:52:21;;;;;;;0.00;0.00;;;;;;;4.88;57.19;100071.03;6306028;22;20061;-76
2022/03/23 01:54:48;;;;;;;0.00;0.00;;;;;;;4.84;56.52;100069.84;6306364;22;20357;-76
2022/03/23 01:57:15;;;;;;;1.55;1.45;;;;;;;4.89;57.03;100083.25;6307131;22;20007;-76
2022/03/23 01:59:42;;;;;;;0.00;0.00;;;;;;;4.80;56.47;100072.09;6305621;22;20086;-75
2022/03/23 02:02:10;;;;;;;0.00;0.00;;;;;;;4.80;56.22;100069.44;6304886;22;20003;-75
2022/03/23 02:04:36;;;;;;;;;;;;;;;4.80;56.53;100066.78;6306200;22;20007;-78
2022/03/23 02:07:03;;;;;;;0.00;0.00;;;;;;;4.75;56.48;100066.63;6281207;22;19991;-78
2022/03/23 02:09:28;;;;;;;0.00;0.00;;;;;;;4.77;56.43;100075.97;6307050;22;20045;-79
2022/03/23 02:11:55;;;;;;;0.00;0.00;;;;;;;4.72;56.22;100065.19;6279888;22;20403;-78
2022/03/23 02:14:21;;;;;;;0.05;0.05;;;;;;;4.71;56.44;100063.59;6304774;22;20046;-77
2022/03/23 02:16:49;;;;;;;0.00;0.00;;;;;;;4.71;56.25;100063.59;6306535;22;19999;-77
2022/03/23 02:19:16;;;;;;;0.00;0.00;;;;;;;4.74;56.07;100063.13;6279937;22;20423;-77
2022/03/23 02:21:46;;;;;;;0.00;0.00;;;;;;;4.76;56.39;100068.22;6277248;22;19999;-76
2022/03/23 02:24:13;;;;;;;0.15;0.15;;;;;;;4.68;55.84;100069.28;6305685;22;20010;-76
2022/03/23 02:26:38;;;;;;;0.00;0.00;;;;;;;4.71;55.99;100060.94;6305260;22;20003;-76
2022/03/23 02:29:04;;;;;;;0.00;0.00;;;;;;;4.64;56.20;100065.44;6305342;22;20039;-77
2022/03/23 02:31:31;;;;;;;0.00;0.00;;;;;;;4.63;56.21;100055.88;6307010;22;20004;-76
2022/03/23 02:33:56;;;;;;;0.00;0.00;;;;;;;4.65;56.06;100073.19;6305119;22;19999;-77
2022/03/23 02:36:22;;;;;;;0.00;0.00;;;;;;;4.62;56.19;100070.13;6305345;22;20399;-76
2022/03/23 02:38:48;;;;;;;0.25;0.25;;;;;;;4.56;56.43;100073.63;6304674;22;20007;-76
2022/03/23 02:41:14;;;;;;;0.35;0.35;;;;;;;4.56;56.60;100078.94;6304950;22;20068;-76
2022/03/23 02:43:39;;;;;;;0.00;0.00;;;;;;;4.49;56.46;100071.81;6277510;22;20007;-76
2022/03/23 02:46:05;;;;;;;0.00;0.00;;;;;;;4.53;56.17;100066.91;6304759;22;20003;-76
2022/03/23 02:48:31;;;;;;;0.30;0.30;;;;;;;4.50;56.63;100075.28;6305145;22;20007;-77
2022/03/23 02:50:56;;;;;;;0.20;0.20;;;;;;;4.49;56.57;100071.00;6305126;22;20348;-75
2022/03/23 03:02:00;;;;;;;0.00;0.00;;;;;;;4.52;56.21;100083.84;6304652;22;20072;-76
2022/03/23 03:04:25;;;;;;;0.00;0.00;;;;;;;4.52;56.28;100083.00;6305095;22;19999;-77
2022/03/23 03:06:51;;;;;;;0.10;0.10;;;;;;;4.51;56.07;100076.09;6304735;22;19999;-77
2022/03/23 03:09:17;;;;;;;0.00;0.00;;;;;;;4.54;55.88;100081.81;6304687;22;20064;-78
2022/03/23 03:11:43;;;;;;;0.00;0.00;;;;;;;4.55;56.13;100083.41;6305870;22;20027;-78
2022/03/23 03:14:11;;;;;;;0.00;0.00;;;;;;;4.56;56.08;100084.22;6281041;22;20003;-78
2022/03/23 03:16:36;;;;;;;0.00;0.00;;;;;;;4.55;56.33;100082.59;6308722;22;20018;-78
2022/03/23 03:19:06;;;;;;;0.00;0.00;;;;;;;4.52;56.00;100075.88;6280115;22;20512;-78
2022/03/23 03:21:32;;;;;;;0.00;0.00;;;;;;;4.49;56.13;100073.66;6280990;22;20007;-77
2022/03/23 03:23:58;;;;;;;0.00;0.00;;;;;;;4.46;55.49;100074.88;6308005;22;20437;-78
2022/03/23 03:26:24;;;;;;;0.00;0.00;;;;;;;4.46;55.54;100069.59;6308564;22;20045;-76
2022/03/23 03:28:50;;;;;;;0.25;0.25;;;;;;;4.45;55.79;100070.59;6307765;22;20391;-75
2022/03/23 03:31:16;;;;;;;0.00;0.00;;;;;;;4.38;55.60;100069.00;6308225;22;20034;-74
2022/03/23 03:33:43;;;;;;;0.00;0.00;;;;;;;4.38;55.50;100061.91;6307875;22;20010;-74
2022/03/23 03:36:10;;;;;;;0.43;0.43;;;;;;;4.34;55.90;100068.63;6307738;22;20011;-74
2022/03/23 03:38:36;;;;;;;0.13;0.13;;;;;;;4.35;55.63;100072.09;6307968;22;20003;-74
2022/03/23 03:41:03;;;;;;;0.00;0.00;;;;;;;4.31;55.81;100077.00;6307493;22;20030;-74
2022/03/23 03:43:30;;;;;;;0.00;0.00;;;;;;;4.30;55.44;100070.06;6307718;22;20007;-75
2022/03/23 03:45:56;;;;;;;0.50;0.38;;;;;;;4.28;55.42;100072.91;6308162;22;20095;-75
2022/03/23 03:48:21;;;;;;;0.20;0.20;;;;;;;4.24;55.84;100078.84;6308640;22;20386;-75
2022/03/23 03:50:47;;;;;;;0.00;0.00;;;;;;;4.23;55.52;100083.31;6308133;22;20079;-74
2022/03/23 03:53:13;;;;;;;0.00;0.00;;;;;;;4.13;55.49;100075.81;6307902;22;20082;-75
2022/03/23 03:55:39;;;;;;;0.00;0.00;;;;;;;4.16;55.48;100080.69;6308478;22;20003;-75
2022/03/23 03:58:06;;;;;;;0.00;0.00;;;;;;;4.09;54.82;100081.72;6307731;22;20352;-75
2022/03/23 04:00:34;;;;;;;0.00;0.00;;;;;;;4.09;55.02;100081.72;6307289;22;20018;-77
2022/03/23 04:02:59;;;;;;;0.00;0.00;;;;;;;4.09;55.53;100081.72;6280312;22;20003;-75
2022/03/23 04:05:25;;;;;;;0.00;0.00;;;;;;;4.07;55.08;100086.44;6308676;22;20007;-76
2022/03/23 04:07:50;;;;;;;0.00;0.00;;;;;;;4.04;55.57;100076.25;6308855;22;20003;-77
2022/03/23 04:10:16;;;;;;;0.00;0.00;;;;;;;3.97;55.24;100092.94;6307862;22;20010;-73
2022/03/23 04:12:41;;;;;;;0.00;0.00;;;;;;;3.95;55.29;100080.94;6306766;22;20000;-76
2022/03/23 04:15:07;;;;;;;0.00;0.00;;;;;;;3.96;55.42;100091.31;6305690;22;20419;-75
2022/03/23 04:17:33;;;;;;;0.00;0.00;;;;;;;3.97;55.21;100092.94;6307980;22;20074;-75
2022/03/23 04:19:58;;;;;;;1.35;0.55;;;;;;;3.92;55.26;100084.81;6307516;22;20035;-74
2022/03/23 04:22:24;;;;;;;0.00;0.00;;;;;;;3.95;55.29;100086.25;6308215;22;20003;-74
2022/03/23 04:24:49;;;;;;;0.00;0.00;;;;;;;4.06;55.31;100090.91;6305717;22;20111;-74
2022/03/23 04:27:15;;;;;;;0.00;0.00;;;;;;;4.15;54.91;100102.91;6306388;22;20010;-74
2022/03/23 04:29:40;;;;;;;0.00;0.00;;;;;;;4.10;54.66;100096.59;6306277;22;20383;-75
2022/03/23 04:32:07;;;;;;;0.00;0.00;;;;;;;4.22;54.70;100097.56;6305877;22;20428;-76
2022/03/23 04:34:34;;;;;;;0.10;0.10;;;;;;;4.40;54.21;100096.91;6306099;22;20003;-76
2022/03/23 04:37:00;;;;;;;0.00;0.00;;;;;;;4.60;54.48;100093.38;6305724;22;20004;-76
2022/03/23 04:39:25;;;;;;;0.00;0.00;;;;;;;4.83;53.76;100087.56;6306361;22;20023;-76
2022/03/23 04:41:51;;;;;;;0.00;0.00;;;;;;;5.17;52.83;100092.69;6305876;22;20375;-76
2022/03/23 04:44:16;;;;;;;0.00;0.00;;;;;;;5.46;52.39;100091.25;6305834;22;19999;-77
2022/03/23 04:46:42;;;;;;;0.00;0.00;;;;;;;5.68;51.46;100101.47;6306079;22;20353;-75
2022/03/23 04:49:08;;;;;;;0.00;0.00;;;;;;;6.00;51.11;100094.25;6306582;22;20007;-78
2022/03/23 04:51:35;;;;;;;0.00;0.00;;;;;;;6.34;49.59;100089.41;6306887;22;20007;-77
2022/03/23 04:54:02;;;;;;;0.00;0.00;;;;;;;6.79;48.56;100095.41;6280575;22;20520;-77
2022/03/23 04:56:27;;;;;;;0.00;0.00;;;;;;;7.11;48.19;100090.66;6306856;22;20448;-77
2022/03/23 04:58:54;;;;;;;0.00;0.00;;;;;;;7.55;47.58;100089.59;6304816;22;19999;-75
2022/03/23 05:01:22;;;;;;;0.00;0.00;;;;;;;7.85;45.89;100082.31;6305967;22;19999;-74
2022/03/23 05:03:48;;;;;;;0.00;0.00;;;;;;;8.23;45.41;100095.38;6305610;22;20007;-75
2022/03/23 05:06:14;;;;;;;0.00;0.00;;;;;;;8.54;44.53;100091.50;6305910;22;20003;-75
2022/03/23 05:08:39;;;;;;;0.00;0.00;;;;;;;8.75;43.09;100092.72;6305210;22;20090;-74
2022/03/23 05:11:05;;;;;;;0.05;0.05;;;;;;;9.09;43.15;100091.97;6277784;22;20007;-74
2022/03/23 05:13:30;;;;;;;0.20;0.20;;;;;;;9.34;42.16;100094.28;6303730;22;20003;-75
2022/03/23 05:15:56;;;;;;;0.00;0.00;;;;;;;9.53;42.21;100100.22;6304787;22;20437;-76
2022/03/23 05:18:21;;;;;;;0.10;0.10;;;;;;;9.81;41.25;100095.78;6278133;22;20459;-77
2022/03/23 05:20:48;;;;;;;0.00;0.00;;;;;;;10.00;41.04;100103.56;6305594;22;20083;-77
2022/03/23 05:23:13;;;;;;;0.80;0.55;;;;;;;10.17;39.97;100095.50;6304974;22;20497;-79
2022/03/23 05:25:39;;;;;;;0.00;0.00;;;;;;;10.32;40.34;100105.59;6278311;22;19999;-76
2022/03/23 05:28:09;;;;;;;0.30;0.30;;;;;;;10.52;40.31;100105.88;6304734;22;20429;-73
2022/03/23 05:30:35;;;;;;;0.00;0.00;;;;;;;10.49;39.20;100103.69;6305323;22;20000;-73
2022/03/23 05:33:01;;;;;;;0.88;0.85;;;;;;;10.69;39.58;100103.13;6305374;22;20004;-73
2022/03/23 05:35:27;;;;;;;0.32;0.32;;;;;;;10.72;39.04;100105.28;6304554;22;20003;-73
2022/03/23 05:37:53;;;;;;;0.00;0.00;;;;;;;10.79;38.36;100121.16;6305365;22;20448;-73
2022/03/23 05:40:21;;;;;;;0.00;0.00;;;;;;;10.82;38.23;100114.50;6306325;22;20011;-72
2022/03/23 05:42:47;;;;;;;0.00;0.00;;;;;;;10.76;37.58;100107.47;6305397;22;20006;-74
2022/03/23 05:45:12;;;;;;;0.00;0.00;;;;;;;10.68;38.35;100116.72;6305098;22;20074;-74
2022/03/23 05:47:38;;;;;;;0.00;0.00;;;;;;;10.59;38.90;100116.38;6305044;22;20003;-74
2022/03/23 05:50:05;;;;;;;0.17;0.10;;;;;;;10.55;39.15;100117.94;6305001;22;20003;-72
2022/03/23 05:52:30;;;;;;;0.00;0.00;;;;;;;10.48;38.99;100104.72;6304960;22;20003;-74
2022/03/23 05:54:56;;;;;;;0.00;0.00;;;;;;;10.54;39.46;100119.00;6304987;22;20429;-74
2022/03/23 05:57:22;;;;;;;0.00;0.00;;;;;;;10.56;39.37;100117.69;6305563;22;20003;-74
2022/03/23 05:59:47;;;;;;;0.00;0.00;;;;;;;10.38;39.07;100118.78;6305615;22;20437;-74
2022/03/23 06:02:12;;;;;;;1.38;1.27;;;;;;;10.33;39.53;100120.56;6305142;22;20082;-74
2022/03/23 06:04:38;;;;;;;0.00;0.00;;;;;;;10.20;39.58;100113.72;6305066;22;20006;-73
2022/03/23 06:07:04;;;;;;;3.72;1.95;;;;;;;10.01;40.05;100113.19;6304839;22;20351;-74
2022/03/23 06:09:29;;;;;;;0.45;0.43;;;;;;;9.94;40.49;100119.50;6305235;22;20003;-75
2022/03/23 06:11:56;;;;;;;0.25;0.25;;;;;;;9.78;39.99;100115.78;6305172;22;20390;-74
2022/03/23 06:14:22;;;;;;;0.00;0.00;;;;;;;9.65;41.08;100115.34;6305319;22;19999;-74
2022/03/23 06:16:47;;;;;;;2.38;0.52;;;;;;;9.47;41.24;100111.03;6277904;22;20011;-72
2022/03/23 06:19:13;;;;;;;0.52;0.52;;;;;;;9.40;41.57;100114.66;6304650;22;20018;-74
2022/03/23 06:21:39;;;;;;;0.00;0.00;;;;;;;9.45;41.25;100114.75;6305427;22;20010;-73
2022/03/23 06:24:05;;;;;;;0.35;0.35;;;;;;;9.29;41.81;100108.34;6277673;22;20013;-73
2022/03/23 06:26:31;;;;;;;0.00;0.00;;;;;;;9.32;41.73;100117.72;6305110;22;20417;-73
2022/03/23 06:28:56;;;;;;;0.00;0.00;;;;;;;9.37;41.66;100109.00;6304901;22;20026;-74
2022/03/23 06:31:22;;;;;;;0.00;0.00;;;;;;;9.42;41.49;100115.25;6304810;22;20471;-73
2022/03/23 06:33:48;;;;;;;0.20;0.20;;;;;;;9.53;42.03;100112.72;6305135;22;20014;-73
2022/03/23 06:36:13;;;;;;;0.10;0.10;;;;;;;9.32;39.33;100104.38;6304929;22;20004;-73
2022/03/23 06:38:39;;;;;;;0.00;0.00;;;;;;;9.13;39.74;100106.47;6277777;22;20014;-73
2022/03/23 06:41:04;;;;;;;0.80;0.70;;;;;;;9.08;40.08;100115.19;6304915;22;20053;-73
2022/03/23 06:43:30;;;;;;;0.13;0.13;;;;;;;8.96;39.13;100117.13;6305080;22;19999;-73
2022/03/23 06:45:55;;;;;;;0.00;0.00;;;;;;;8.86;39.76;100084.91;6304354;22;20026;-73
2022/03/23 06:48:21;;;;;;;0.32;0.32;;;;;;;8.84;40.27;100113.66;6304908;22;19999;-73
2022/03/23 06:50:46;;;;;;;0.00;0.00;;;;;;;8.84;39.55;100093.16;6304947;22;20045;-73
2022/03/23 06:53:12;;;;;;;0.20;0.15;;;;;;;8.83;38.98;100107.53;6304820;22;20006;-73
2022/03/23 06:55:38;;;;;;;0.40;0.40;;;;;;;8.91;38.96;100096.47;6304978;22;20078;-73
2022/03/23 06:58:04;;;;;;;0.00;0.00;;;;;;;8.95;39.09;100100.28;6304654;22;20013;-73
2022/03/23 07:00:29;;;;;;;0.20;0.20;;;;;;;8.97;37.88;100095.53;6277670;22;20538;-73
2022/03/23 07:02:54;;;;;;;0.05;0.05;;;;;;;9.03;38.25;100100.94;6304678;22;20026;-73
2022/03/23 07:05:20;;;;;;;0.22;0.22;;;;;;;9.04;37.97;100105.25;6304914;22;20084;-73
2022/03/23 07:10:37;;;;;;;0.00;0.00;;;;;;;8.95;37.92;100067.47;6304633;22;20014;-73
2022/03/23 07:13:03;;;;;;;0.00;0.00;;;;;;;8.97;36.35;100070.69;6304758;22;20003;-73
2022/03/23 07:15:28;;;;;;;0.00;0.00;;;;;;;8.89;36.09;100098.56;6304713;22;20027;-73
2022/03/23 07:17:54;;;;;;;3.78;1.98;;;;;;;8.92;37.02;100087.44;6304647;22;20007;-73
2022/03/23 07:20:19;;;;;;;0.00;0.00;;;;;;;8.97;37.37;100079.50;6305038;22;20094;-72
2022/03/23 07:22:45;;;;;;;1.35;1.20;;;;;;;9.01;36.69;100085.19;6304920;22;20079;-73
2022/03/23 07:25:11;;;;;;;0.20;0.20;;;;;;;9.08;35.92;100104.53;6304609;22;20000;-73
2022/03/23 07:27:37;;;;;;;0.15;0.15;;;;;;;9.11;35.77;100081.88;6304853;22;20003;-73
2022/03/23 07:30:03;;;;;;;0.47;0.47;;;;;;;9.17;34.83;100088.09;6304440;22;20009;-72
2022/03/23 07:32:29;;;;;;;0.00;0.00;;;;;;;9.21;35.83;100090.06;6305085;22;19999;-75
2022/03/23 07:34:54;;;;;;;0.00;0.00;;;;;;;9.23;33.73;100087.97;6305101;22;20049;-74
2022/03/23 07:37:20;;;;;;;0.90;0.90;;;;;;;9.34;33.26;100075.59;6304562;22;20003;-73
2022/03/23 07:39:45;;;;;;;0.05;0.05;;;;;;;9.32;32.30;100052.88;6304723;22;20003;-73
2022/03/23 07:42:11;;;;;;;0.00;0.00;;;;;;;9.30;31.89;100071.78;6304514;22;19999;-74
2022/03/23 07:44:37;;;;;;;0.50;0.50;;;;;;;9.40;31.75;100068.50;6304771;22;20072;-74
2022/03/23 07:47:07;;;;;;;0.00;0.00;;;;;;;9.36;31.06;100073.50;6304439;22;20034;-74
2022/03/23 07:49:32;;;;;;;0.20;0.20;;;;;;;9.39;32.49;100080.22;6304802;22;20000;-74
2022/03/23 07:52:02;;;;;;;0.00;0.00;;;;;;;9.31;31.13;100104.63;6304405;22;19999;-75
2022/03/23 07:54:28;;;;;;;0.55;0.55;;;;;;;9.29;31.02;100070.97;6305029;22;19999;-74
2022/03/23 07:56:53;;;;;;;0.00;0.00;;;;;;;9.35;31.62;100077.22;6304400;22;20348;-74
2022/03/23 07:59:18;;;;;;;0.00;0.00;;;;;;;9.38;31.00;100063.38;6305454;22;20003;-74
2022/03/23 08:01:44;;;;;;;0.05;0.05;;;;;;;9.27;30.34;100077.59;6306636;22;20481;-73
2022/03/23 08:04:09;;;;;;;0.30;0.30;;;;;;;9.37;31.30;100072.44;6306428;22;20487;-73
2022/03/23 08:06:35;;;;;;;0.10;0.10;;;;;;;9.42;32.12;100067.19;6306629;22;20096;-73
2022/03/23 08:09:02;;;;;;;0.10;0.10;;;;;;;9.54;30.78;100061.75;6305983;22;20383;-73
2022/03/23 08:11:28;;;;;;;0.30;0.30;;;;;;;9.63;31.12;100072.03;6306181;22;20000;-73
2022/03/23 08:13:53;;;;;;;0.30;0.30;;;;;;;9.64;29.96;100065.63;6305979;22;20011;-73
2022/03/23 08:16:18;;;;;;;0.00;0.00;;;;;;;9.71;30.66;100055.59;6306501;22;20379;-73
2022/03/23 08:18:44;;;;;;;0.00;0.00;;;;;;;9.69;29.86;100065.69;6306201;22;20009;-73
2022/03/23 08:21:09;;;;;;;0.00;0.00;;;;;;;9.71;30.53;100066.28;6305867;22;20086;-73
2022/03/23 08:23:35;;;;;;;0.00;0.00;;;;;;;9.76;29.61;100044.97;6305980;22;20495;-73
2022/03/23 08:26:02;;;;;;;0.10;0.10;;;;;;;9.81;29.58;100026.34;6305968;22;20027;-74
2022/03/23 08:28:28;;;;;;;0.63;0.63;;;;;;;9.87;30.28;100053.94;6306207;22;20137;-74
2022/03/23 08:30:53;;;;;;;0.45;0.32;;;;;;;9.76;29.78;100061.00;6305413;22;20441;-73
2022/03/23 08:33:19;;;;;;;0.50;0.50;;;;;;;9.73;29.52;100058.84;6306272;22;20030;-73
2022/03/23 08:35:44;;;;;;;0.65;0.65;;;;;;;9.72;29.95;100038.50;6305925;22;19999;-73
2022/03/23 08:38:10;;;;;;;0.00;0.00;;;;;;;9.82;29.46;100051.19;6306046;22;19999;-73
2022/03/23 08:40:35;;;;;;;0.10;0.10;;;;;;;9.90;28.83;100051.59;6306181;22;20429;-73
2022/03/23 08:43:02;;;;;;;0.00;0.00;;;;;;;9.93;27.69;100069.00;6305832;22;20084;-74
2022/03/23 08:45:27;;;;;;;0.22;0.22;;;;;;;9.85;27.92;100043.50;6306187;22;19999;-73
2022/03/23 08:47:54;;;;;;;0.00;0.00;;;;;;;9.97;28.95;100040.72;6305961;22;20011;-73
2022/03/23 08:50:20;;;;;;;0.00;0.00;;;;;;;10.02;27.68;100026.59;6278573;22;20014;-73
2022/03/23 08:52:45;;;;;;;0.10;0.10;;;;;;;10.15;28.39;100041.47;6305381;22;20077;-73
2022/03/23 08:55:19;;;;;;;0.40;0.40;;;;;;;10.21;27.08;100016.44;6305569;22;20007;-73
2022/03/23 08:57:45;;;;;;;0.05;0.05;;;;;;;10.05;26.11;100072.34;6305413;22;20003;-73
2022/03/23 09:00:14;;;;;;;0.10;0.10;;;;;;;10.02;26.49;100046.13;6305775;22;20010;-73
2022/03/23 09:02:40;;;;;;;0.10;0.10;;;;;;;9.94;26.85;100070.59;6305604;22;20445;-73
2022/03/23 09:05:09;;;;;;;0.00;0.00;;;;;;;9.94;26.71;100042.00;6305698;22;20003;-73
2022/03/23 09:07:36;;;;;;;0.20;0.20;;;;;;;9.86;25.34;100061.16;6305851;22;20003;-73
2022/03/23 09:10:02;;;;;;;0.00;0.00;;;;;;;9.86;26.38;100049.66;6305395;22;20003;-73
2022/03/23 09:12:28;;;;;;;0.00;0.00;;;;;;;9.87;26.39;100016.53;6305934;22;20007;-73
2022/03/23 09:14:53;;;;;;;0.00;0.00;;;;;;;9.91;26.57;100052.38;6305169;22;20041;-73
2022/03/23 09:17:18;;;;;;;0.60;0.60;;;;;;;9.81;26.69;100014.84;6277970;22;20003;-73
2022/03/23 09:19:44;;;;;;;0.43;0.30;;;;;;;9.91;25.40;100039.84;6305388;22;20023;-73
2022/03/23 09:22:10;;;;;;;0.10;0.10;;;;;;;9.95;25.31;100021.47;6305548;22;20023;-73
2022/03/23 09:24:35;;;;;;;0.00;0.00;;;;;;;10.06;25.29;100001.81;6305698;22;20060;-74
2022/03/23 09:27:01;;;;;;;0.40;0.40;;;;;;;10.18;25.93;100019.59;6305297;22;20003;-72
2022/03/23 09:29:26;;;;;;;0.43;0.43;;;;;;;10.20;25.40;100007.56;6305521;22;20003;-73
2022/03/23 09:31:52;;;;;;;0.00;0.00;;;;;;;10.28;25.00;100006.34;6305400;22;20029;-72
2022/03/23 09:34:18;;;;;;;0.40;0.35;;;;;;;10.28;25.54;100001.00;6305573;22;20010;-73
2022/03/23 09:39:27;;;;;;;0.00;0.00;;;;;;;10.21;25.61;99995.03;6305274;22;20069;-72
2022/03/23 09:41:57;;;;;;;0.20;0.20;;;;;;;10.27;24.76;100001.25;6305338;22;20004;-74
2022/03/23 09:44:25;;;;;;;0.10;0.10;;;;;;;10.25;24.07;100007.66;6305580;22;20065;-72
2022/03/23 09:46:51;;;;;;;0.20;0.20;;;;;;;10.26;24.91;100019.16;6305306;22;20010;-74
2022/03/23 09:49:16;;;;;;;0.65;0.63;;;;;;;10.38;24.77;99974.41;6305243;22;19999;-74
2022/03/23 09:51:42;;;;;;;0.00;0.00;;;;;;;10.48;25.09;99971.00;6305311;22;20003;-74
2022/03/23 09:54:08;;;;;;;0.00;0.00;;;;;;;10.44;24.62;99977.94;6277777;22;20011;-73
2022/03/23 09:56:34;;;;;;;0.20;0.20;;;;;;;10.68;25.59;99982.97;6305483;22;20377;-73
2022/03/23 09:59:02;;;;;;;0.00;0.00;;;;;;;10.78;24.49;99977.72;6305127;22;20004;-74
2022/03/23 10:01:28;;;;;;;0.65;0.65;;;;;;;10.68;23.08;100005.19;6305328;22;20124;-74
2022/03/23 10:04:20;;;;;;;0.00;0.00;;;;;;;10.60;24.45;99983.44;6305070;22;20015;-74
2022/03/23 10:07:04;;;;;;;0.25;0.25;;;;;;;10.79;25.78;99984.69;6305434;22;20031;-74
2022/03/23 10:10:02;;;;;;;0.30;0.30;;;;;;;10.73;24.13;99986.50;6305142;22;20101;-74
2022/03/23 10:13:05;;;;;;;0.00;0.00;;;;;;;10.72;23.18;99984.09;6305330;22;20007;-74
2022/03/23 10:15:33;;;;;;;0.10;0.10;;;;;;;10.66;22.93;99999.28;6305297;22;19999;-74
2022/03/23 10:18:20;;;;;;;0.15;0.15;;;;;;;10.73;23.71;99970.47;6304982;22;20004;-74
2022/03/23 10:20:47;;;;;;;0.38;0.38;;;;;;;10.82;24.88;99970.00;6305005;22;20022;-72
2022/03/23 10:23:13;;;;;;;0.00;0.00;;;;;;;10.80;23.02;99980.16;6304394;22;20062;-73
2022/03/23 10:25:40;;;;;;;0.10;0.10;;;;;;;10.81;22.92;99974.53;6305173;22;20010;-73
2022/03/23 10:28:16;;;;;;;0.20;0.20;;;;;;;10.83;22.49;99980.44;6304803;22;19999;-73
2022/03/23 10:30:43;;;;;;;0.13;0.13;;;;;;;10.83;24.31;99947.53;6304720;22;20003;-74
2022/03/23 10:33:24;;;;;;;0.75;0.75;;;;;;;11.03;23.91;99966.44;6304870;22;20004;-74
2022/03/23 10:35:51;;;;;;;0.70;0.52;;;;;;;11.07;24.20;99936.47;6305098;22;20109;-73
2022/03/23 10:38:22;;;;;;;0.00;0.00;;;;;;;11.14;24.88;99947.75;6305065;22;20069;-74
2022/03/23 10:40:51;;;;;;;0.00;0.00;;;;;;;11.28;24.91;99962.31;6305013;22;20035;-74
2022/03/23 10:43:23;;;;;;;0.20;0.20;;;;;;;11.24;23.01;99955.06;6304997;22;20034;-74
2022/03/23 10:45:48;;;;;;;0.13;0.13;;;;;;;11.27;22.84;99962.59;6304808;22;20000;-74
2022/03/23 10:48:18;;;;;;;0.15;0.15;;;;;;;11.35;23.73;99944.16;6277320;22;20006;-73
2022/03/23 10:50:58;;;;;;;0.10;0.10;;;;;;;11.44;23.53;99928.41;6304893;22;20011;-75
2022/03/23 10:53:36;;;;;;;0.30;0.30;;;;;;;11.48;22.56;99939.41;6304900;22;20463;-73
2022/03/23 10:56:02;;;;;;;;;;;;;;;11.51;22.95;99918.25;6305089;22;20010;-72
2022/03/23 10:58:28;;;;;;;0.85;0.68;;;;;;;11.55;24.14;99926.59;6304885;22;19902;-73
2022/03/23 11:01:02;;;;;;;0.00;0.00;;;;;;;11.63;24.60;99920.72;6304567;22;20004;-72
2022/03/23 11:03:48;;;;;;;0.10;0.10;;;;;;;11.77;23.38;99920.25;6302817;22;20003;-74
2022/03/23 11:06:16;;;;;;;0.32;0.32;;;;;;;11.81;22.97;99895.31;6304453;22;20011;-73
2022/03/23 11:08:44;;;;;;;;;;;;;;;11.92;22.67;99912.25;6277892;22;20441;-71
2022/03/23 11:16:28;;;;;;;0.75;0.75;;;;;;;12.04;22.53;99903.22;6304878;22;20078;-74
2022/03/23 11:19:12;;;;;;;0.10;0.10;;;;;;;11.91;22.42;99899.91;6304231;22;20072;-74
2022/03/23 11:21:56;;;;;;;0.10;0.10;;;;;;;11.83;22.57;99893.19;6304147;22;20003;-73
2022/03/23 11:24:22;;;;;;;0.10;0.10;;;;;;;11.84;23.00;99872.56;6304399;22;20018;-73
2022/03/23 11:26:49;;;;;;;0.43;0.43;;;;;;;11.96;23.33;99888.41;6304497;22;20008;-73
2022/03/23 11:29:17;;;;;;;0.00;0.00;;;;;;;11.94;22.49;99895.91;6304304;22;20003;-73
2022/03/23 11:31:44;;;;;;;0.38;0.38;;;;;;;12.05;22.54;99880.66;6304671;22;20137;-73
2022/03/23 11:34:13;;;;;;;0.30;0.30;;;;;;;11.99;21.93;99904.78;6305970;22;20000;-73
2022/03/23 11:36:39;;;;;;;0.00;0.00;;;;;;;11.96;20.85;99908.03;6306751;22;19999;-73
2022/03/23 11:39:05;;;;;;;0.40;0.40;;;;;;;11.91;21.44;99905.25;6306451;22;20443;-73
2022/03/23 11:41:32;;;;;;;0.40;0.40;;;;;;;11.85;21.09;99903.63;6306815;22;20000;-73
2022/03/23 11:43:58;;;;;;;1.52;1.42;;;;;;;11.85;21.68;99871.47;6306467;22;20428;-73
2022/03/23 11:46:25;;;;;;;0.65;0.65;;;;;;;11.96;22.83;99877.69;6306754;22;20010;-73
2022/03/23 11:49:01;;;;;;;0.10;0.10;;;;;;;12.00;22.12;99866.19;6306779;22;20003;-73
2022/03/23 11:51:49;;;;;;;0.10;0.10;;;;;;;12.08;21.87;99880.16;6306154;22;20363;-73
2022/03/23 11:54:23;;;;;;;0.10;0.10;;;;;;;12.19;22.46;99873.72;6306480;22;20018;-73